createdAt,value
2024-04-18T00:01:46.523Z,75.00
2024-04-18T00:04:14.281Z,75.07
2024-04-18T00:06:42.044Z,75.43
2024-04-18T00:09:09.617Z,75.25
2024-04-18T00:11:37.069Z,75.26
2024-04-18T00:14:12.459Z,75.35
2024-04-18T00:16:39.965Z,75.43
2024-04-18T00:19:17.238Z,75.35
2024-04-18T00:21:57.996Z,75.72
2024-04-18T00:24:28.739Z,76.03
2024-04-18T00:26:56.789Z,76.04
2024-04-18T00:29:36.966Z,75.98
2024-04-18T00:32:11.171Z,75.95
2024-04-18T00:34:38.870Z,75.79
2024-04-18T00:37:06.358Z,75.67
2024-04-18T00:39:52.512Z,75.23
2024-04-18T00:42:41.514Z,75.29
2024-04-18T00:45:09.225Z,75.99
2024-04-18T00:47:48.585Z,76.66
2024-04-18T00:50:17.405Z,77.01
2024-04-18T00:52:46.622Z,77.74
2024-04-18T00:55:28.376Z,77.56
2024-04-18T00:58:12.137Z,77.79
2024-04-18T01:00:43.610Z,77.60
2024-04-18T01:03:30.279Z,77.82
2024-04-18T01:06:10.496Z,77.46
2024-04-18T01:08:57.628Z,77.20
2024-04-18T01:11:32.604Z,77.43
2024-04-18T01:14:09.592Z,77.87
2024-04-18T01:16:55.654Z,78.35
2024-04-18T01:19:23.149Z,78.37
2024-04-18T01:21:51.141Z,78.23
2024-04-18T01:24:19.419Z,78.53
2024-04-18T01:26:46.888Z,78.48
2024-04-18T01:29:14.433Z,78.68
2024-04-18T01:32:00.500Z,78.69
2024-04-18T01:34:28.084Z,78.27
2024-04-18T01:37:14.213Z,77.96
2024-04-18T01:39:45.720Z,78.05
2024-04-18T01:42:13.271Z,78.53
2024-04-18T01:44:47.908Z,78.26
2024-04-18T01:47:34.358Z,78.73
2024-04-18T01:50:08.486Z,78.41
2024-04-18T01:52:37.392Z,78.76
2024-04-18T01:55:08.836Z,78.85
2024-04-18T01:57:37.396Z,78.95
2024-04-18T02:00:23.766Z,78.59
2024-04-18T02:02:51.428Z,78.70
2024-04-18T02:05:37.651Z,78.79
2024-04-18T02:08:17.256Z,78.65
2024-04-18T02:10:50.711Z,78.73
2024-04-18T02:13:37.080Z,79.08
2024-04-18T02:16:05.313Z,79.26
2024-04-18T02:18:48.310Z,79.00
2024-04-18T02:21:15.978Z,79.72
2024-04-18T02:23:53.079Z,79.61
2024-04-18T02:26:20.629Z,79.49
2024-04-18T02:28:48.144Z,79.47
2024-04-18T02:31:18.470Z,79.71
2024-04-18T02:33:52.909Z,80.10
2024-04-18T02:36:21.806Z,79.44
2024-04-18T02:38:49.477Z,79.59
2024-04-18T02:41:17.000Z,79.67
2024-04-18T02:43:55.126Z,80.09
2024-04-18T02:46:23.490Z,79.93
2024-04-18T02:49:09.564Z,79.82
2024-04-18T02:51:56.972Z,79.67
2024-04-18T02:54:45.114Z,80.09
2024-04-18T02:57:12.871Z,79.90
2024-04-18T02:59:40.381Z,80.04
2024-04-18T03:02:26.502Z,80.15
2024-04-18T03:05:17.631Z,79.90
2024-04-18T03:07:45.083Z,80.08
2024-04-18T03:10:12.596Z,79.88
2024-04-18T03:12:58.841Z,80.87
2024-04-18T03:15:45.752Z,80.93
2024-04-18T03:18:14.411Z,80.56
2024-04-18T03:20:42.088Z,80.81
2024-04-18T03:23:10.188Z,81.24
2024-04-18T03:25:56.509Z,81.66
2024-04-18T03:28:24.091Z,81.31
2024-04-18T03:30:51.847Z,80.99
2024-04-18T03:33:19.695Z,81.08
2024-04-18T03:35:47.533Z,81.46
2024-04-18T03:38:15.476Z,81.29
2024-04-18T03:40:43.057Z,81.05
2024-04-18T03:43:10.583Z,81.28
2024-04-18T03:45:38.123Z,81.00
2024-04-18T03:48:24.136Z,80.99
2024-04-18T03:50:51.762Z,81.01
2024-04-18T03:53:20.162Z,80.99
2024-04-18T03:55:47.716Z,81.21
2024-04-18T03:58:15.207Z,82.00
2024-04-18T04:00:49.196Z,81.69
2024-04-18T04:03:17.226Z,81.84
2024-04-18T04:05:44.802Z,82.14
2024-04-18T04:08:12.290Z,82.41
2024-04-18T04:10:40.895Z,82.67
2024-04-18T04:13:08.542Z,82.65
2024-04-18T04:15:49.248Z,82.56
2024-04-18T04:18:35.973Z,82.69
2024-04-18T04:21:23.299Z,82.40
2024-04-18T04:23:51.360Z,82.92
2024-04-18T04:26:20.230Z,82.84
2024-04-18T04:28:47.916Z,82.42
2024-04-18T04:31:15.563Z,82.98
2024-04-18T04:33:43.282Z,82.72
2024-04-18T04:36:10.763Z,83.01
2024-04-18T04:38:39.745Z,82.49
2024-04-18T04:41:07.586Z,82.52
2024-04-18T04:43:35.126Z,82.29
2024-04-18T04:46:15.302Z,82.39
2024-04-18T04:48:43.111Z,82.49
2024-04-18T04:51:15.631Z,82.27
2024-04-18T04:53:43.186Z,82.49
2024-04-18T04:56:30.619Z,82.52
2024-04-18T04:59:18.037Z,82.60
2024-04-18T05:01:50.224Z,82.69
2024-04-18T05:04:37.766Z,82.59
2024-04-18T05:07:05.577Z,82.50
2024-04-18T05:09:33.807Z,82.31
2024-04-18T05:12:01.330Z,82.39
2024-04-18T05:14:34.755Z,82.32
2024-04-18T05:17:22.181Z,82.38
2024-04-18T05:20:10.594Z,82.35
2024-04-18T05:22:38.092Z,82.41
2024-04-18T05:25:05.800Z,82.34
2024-04-18T05:27:33.729Z,82.26
2024-04-18T05:30:19.633Z,82.29
2024-04-18T05:32:47.302Z,82.37
2024-04-18T05:35:14.878Z,82.40
2024-04-18T05:37:42.329Z,82.56
2024-04-18T05:40:10.067Z,82.58
2024-04-18T05:42:37.543Z,82.75
2024-04-18T05:45:11.344Z,82.88
2024-04-18T05:47:57.540Z,82.73
2024-04-18T05:50:26.640Z,82.56
2024-04-18T05:52:54.463Z,83.04
2024-04-18T05:55:22.020Z,82.92
2024-04-18T05:57:49.679Z,82.64
2024-04-18T06:00:36.416Z,82.41
2024-04-18T06:03:04.434Z,82.42
2024-04-18T06:05:32.177Z,82.46
2024-04-18T06:08:15.052Z,82.34
2024-04-18T06:10:43.382Z,82.35
2024-04-18T06:13:21.298Z,82.41
2024-04-18T06:15:49.607Z,82.54
2024-04-18T06:18:18.080Z,82.30
2024-04-18T06:20:52.530Z,82.25
2024-04-18T06:23:20.406Z,81.87
2024-04-18T06:26:08.073Z,81.56
2024-04-18T06:28:35.580Z,81.42
2024-04-18T06:31:03.957Z,81.23
2024-04-18T06:33:31.705Z,80.62
2024-04-18T06:35:59.968Z,79.86
2024-04-18T06:38:27.538Z,78.43
2024-04-18T06:40:55.111Z,78.29
2024-04-18T06:43:41.439Z,76.99
2024-04-18T06:46:09.913Z,75.39
2024-04-18T06:48:37.673Z,74.84
2024-04-18T06:51:05.482Z,74.71
2024-04-18T06:53:32.937Z,74.45
2024-04-18T06:56:01.373Z,74.01
2024-04-18T06:58:29.160Z,73.64
2024-04-18T07:00:56.769Z,73.20
2024-04-18T07:03:24.534Z,72.85
2024-04-18T07:05:52.916Z,72.83
2024-04-18T07:08:25.303Z,73.72
2024-04-18T07:10:53.924Z,73.23
2024-04-18T07:13:33.851Z,73.07
2024-04-18T07:16:22.582Z,73.12
2024-04-18T07:18:55.999Z,73.69
2024-04-18T07:21:23.679Z,72.89
2024-04-18T07:23:51.200Z,72.96
2024-04-18T07:26:38.994Z,72.03
2024-04-18T07:29:06.602Z,71.82
2024-04-18T07:31:34.050Z,71.14
2024-04-18T07:34:17.227Z,69.77
2024-04-18T07:36:47.174Z,69.75
2024-04-18T07:39:15.102Z,69.33
2024-04-18T07:41:42.607Z,70.23
2024-04-18T07:44:12.670Z,70.61
2024-04-18T07:46:40.860Z,70.16
2024-04-18T07:49:09.398Z,69.71
2024-04-18T07:51:38.212Z,69.45
2024-04-18T07:54:05.865Z,69.29
2024-04-18T07:56:34.166Z,67.86
2024-04-18T07:59:02.511Z,68.12
2024-04-18T08:01:32.318Z,67.83
2024-04-18T08:04:17.796Z,67.29
2024-04-18T08:06:51.060Z,67.18
2024-04-18T08:09:23.827Z,66.54
2024-04-18T08:12:18.198Z,67.50
2024-04-18T08:14:43.743Z,66.85
2024-04-18T08:17:14.079Z,67.16
2024-04-18T08:19:41.785Z,66.37
2024-04-18T08:22:09.258Z,65.86
2024-04-18T08:24:37.180Z,64.03
2024-04-18T08:27:08.079Z,64.62
2024-04-18T08:29:35.758Z,63.48
2024-04-18T08:32:03.755Z,61.99
2024-04-18T08:34:32.824Z,61.74
2024-04-18T08:37:01.411Z,61.24
2024-04-18T08:39:29.064Z,61.65
2024-04-18T08:41:59.855Z,60.31
2024-04-18T08:44:27.570Z,58.09
2024-04-18T08:46:58.649Z,58.86
2024-04-18T08:49:27.467Z,60.58
2024-04-18T08:51:55.370Z,60.82
2024-04-18T08:54:22.907Z,60.54
2024-04-18T08:56:57.250Z,59.18
2024-04-18T08:59:24.838Z,58.62
2024-04-18T09:01:53.225Z,59.52
2024-04-18T09:04:20.726Z,59.12
2024-04-18T09:06:48.211Z,60.07
2024-04-18T09:09:17.930Z,60.41
2024-04-18T09:11:47.912Z,60.01
2024-04-18T09:14:15.557Z,59.93
2024-04-18T09:16:44.696Z,59.68
2024-04-18T09:19:13.738Z,59.42
2024-04-18T09:21:42.076Z,59.11
2024-04-18T09:24:09.719Z,57.52
2024-04-18T09:26:37.389Z,54.95
2024-04-18T09:29:04.905Z,56.19
2024-04-18T09:31:38.437Z,54.46
2024-04-18T09:34:15.377Z,54.47
2024-04-18T09:36:43.307Z,54.73
2024-04-18T09:39:11.839Z,55.06
2024-04-18T09:41:42.269Z,54.62
2024-04-18T09:44:22.240Z,55.33
2024-04-18T09:46:51.516Z,55.49
2024-04-18T09:49:19.945Z,55.40
2024-04-18T09:51:48.930Z,55.97
2024-04-18T09:54:18.350Z,55.36
2024-04-18T09:56:47.643Z,54.85
2024-04-18T09:59:16.981Z,54.59
2024-04-18T10:01:44.867Z,52.18
2024-04-18T10:04:12.570Z,51.33
2024-04-18T10:06:44.508Z,51.95
2024-04-18T10:09:15.642Z,51.47
2024-04-18T10:11:43.617Z,51.20
2024-04-18T10:14:12.568Z,52.21
2024-04-18T10:16:48.839Z,52.70
2024-04-18T10:19:21.939Z,52.82
2024-04-18T10:24:35.808Z,52.83
2024-04-18T10:27:12.249Z,52.10
2024-04-18T10:29:39.968Z,52.09
2024-04-18T10:32:08.990Z,52.45
2024-04-18T10:34:36.616Z,51.01
2024-04-18T10:37:07.384Z,50.87
2024-04-18T10:39:41.133Z,48.89
2024-04-18T10:42:10.161Z,49.95
2024-04-18T10:44:38.281Z,49.87
2024-04-18T10:47:07.500Z,50.64
2024-04-18T10:49:35.167Z,50.29
2024-04-18T10:52:04.592Z,50.21
2024-04-18T10:54:32.101Z,49.78
2024-04-18T10:56:59.681Z,47.68
2024-04-18T10:59:28.051Z,47.67
2024-04-18T11:02:10.183Z,49.02
2024-04-18T11:04:37.724Z,49.06
2024-04-18T11:07:05.200Z,49.49
2024-04-18T11:09:34.856Z,49.28
2024-04-18T11:12:03.068Z,48.26
2024-04-18T11:14:30.636Z,47.90
2024-04-18T11:17:01.023Z,44.47
2024-04-18T11:19:30.079Z,45.40
2024-04-18T11:22:01.972Z,45.98
2024-04-18T11:24:30.214Z,46.49
2024-04-18T11:26:57.869Z,47.03
2024-04-18T11:29:28.745Z,47.83
2024-04-18T11:32:11.480Z,47.21
2024-04-18T11:34:39.669Z,46.12
2024-04-18T11:37:08.645Z,43.84
2024-04-18T11:39:36.635Z,44.19
2024-04-18T11:42:04.354Z,45.41
2024-04-18T11:44:33.453Z,47.67
2024-04-18T11:47:01.545Z,46.92
2024-04-18T11:49:29.220Z,47.80
2024-04-18T11:51:57.681Z,46.94
2024-04-18T11:54:25.716Z,47.24
2024-04-18T11:56:54.779Z,47.72
2024-04-18T11:59:32.909Z,46.82
2024-04-18T12:02:00.444Z,46.03
2024-04-18T12:04:30.071Z,46.51
2024-04-18T12:06:57.650Z,45.13
2024-04-18T12:09:28.911Z,45.56
2024-04-18T12:12:00.009Z,47.25
2024-04-18T12:14:47.640Z,45.57
2024-04-18T12:17:30.499Z,45.16
2024-04-18T12:20:16.876Z,44.95
2024-04-18T12:22:44.434Z,43.24
2024-04-18T12:25:18.318Z,43.54
2024-04-18T12:27:47.078Z,42.68
2024-04-18T12:30:34.164Z,44.50
2024-04-18T12:33:20.624Z,44.79
2024-04-18T12:35:48.583Z,42.16
2024-04-18T12:38:16.186Z,43.62
2024-04-18T12:40:46.728Z,43.02
2024-04-18T12:43:16.425Z,43.66
2024-04-18T12:46:11.551Z,41.18
2024-04-18T12:48:52.444Z,41.47
2024-04-18T12:51:20.179Z,41.63
2024-04-18T12:53:47.795Z,40.59
2024-04-18T12:56:15.478Z,41.99
2024-04-18T12:58:43.290Z,41.76
2024-04-18T13:01:11.735Z,42.08
2024-04-18T13:03:43.755Z,41.84
2024-04-18T13:06:30.329Z,42.13
2024-04-18T13:08:58.895Z,39.84
2024-04-18T13:11:45.737Z,41.09
2024-04-18T13:14:13.245Z,41.67
2024-04-18T13:16:40.879Z,40.56
2024-04-18T13:19:12.104Z,41.46
2024-04-18T13:21:40.323Z,39.88
2024-04-18T13:24:12.097Z,40.94
2024-04-18T13:26:52.765Z,41.02
2024-04-18T13:29:21.179Z,40.80
2024-04-18T13:31:48.783Z,40.60
2024-04-18T13:34:20.432Z,40.11
2024-04-18T13:36:48.155Z,37.48
2024-04-18T13:39:16.064Z,39.41
2024-04-18T13:41:47.584Z,40.73
2024-04-18T13:44:18.604Z,40.81
2024-04-18T13:46:46.370Z,40.26
2024-04-18T13:49:33.925Z,40.67
2024-04-18T13:52:01.478Z,41.19
2024-04-18T13:54:35.793Z,41.37
2024-04-18T13:57:06.785Z,39.59
2024-04-18T13:59:44.346Z,38.97
2024-04-18T14:02:30.521Z,40.94
2024-04-18T14:05:20.656Z,40.74
2024-04-18T14:08:04.121Z,40.33
2024-04-18T14:10:32.039Z,40.96
2024-04-18T14:13:21.101Z,40.79
2024-04-18T14:16:10.630Z,41.10
2024-04-18T14:19:04.372Z,41.85
2024-04-18T14:21:35.816Z,41.73
2024-04-18T14:24:06.406Z,40.99
2024-04-18T14:26:33.971Z,40.43
2024-04-18T14:29:20.386Z,40.66
2024-04-18T14:32:01.972Z,40.02
2024-04-18T14:34:48.749Z,39.90
2024-04-18T14:37:17.467Z,40.64
2024-04-18T14:39:45.120Z,39.82
2024-04-18T14:42:12.728Z,40.42
2024-04-18T14:44:40.300Z,40.39
2024-04-18T14:47:15.565Z,40.38
2024-04-18T14:50:02.536Z,40.63
2024-04-18T14:52:36.296Z,40.84
2024-04-18T14:55:25.352Z,40.89
2024-04-18T14:57:52.842Z,40.71
2024-04-18T15:00:21.156Z,40.10
2024-04-18T15:02:48.678Z,40.17
2024-04-18T15:05:57.036Z,39.74
2024-04-18T15:08:41.865Z,39.29
2024-04-18T15:11:26.737Z,39.77
2024-04-18T15:14:07.559Z,40.86
2024-04-18T15:16:35.423Z,41.51
2024-04-18T15:19:03.127Z,40.79
2024-04-18T15:21:49.847Z,41.26
2024-04-18T15:24:17.488Z,40.57
2024-04-18T15:27:04.881Z,40.63
2024-04-18T15:29:33.833Z,41.33
2024-04-18T15:32:20.958Z,41.33
2024-04-18T15:34:49.215Z,41.03
2024-04-18T15:37:42.734Z,40.74
2024-04-18T15:40:10.796Z,41.72
2024-04-18T15:42:38.755Z,41.37
2024-04-18T15:45:26.643Z,42.42
2024-04-18T15:47:54.330Z,42.57
2024-04-18T15:50:24.650Z,41.79
2024-04-18T15:52:53.350Z,42.39
2024-04-18T15:55:33.185Z,42.62
2024-04-18T15:58:19.447Z,42.50
2024-04-18T16:00:47.033Z,42.57
2024-04-18T16:03:33.924Z,43.19
2024-04-18T16:06:23.127Z,43.29
2024-04-18T16:09:09.201Z,43.51
2024-04-18T16:11:40.322Z,43.79
2024-04-18T16:14:28.412Z,44.42
2024-04-18T16:16:56.021Z,44.21
2024-04-18T16:19:39.674Z,43.93
2024-04-18T16:22:07.188Z,43.97
2024-04-18T16:24:50.021Z,43.80
2024-04-18T16:27:17.710Z,42.89
2024-04-18T16:30:00.632Z,42.70
2024-04-18T16:32:45.574Z,43.62
2024-04-18T16:35:13.233Z,42.98
2024-04-18T16:37:41.813Z,43.23
2024-04-18T16:40:15.871Z,43.99
2024-04-18T16:42:59.194Z,43.88
2024-04-18T16:45:26.789Z,44.23
2024-04-18T16:47:54.394Z,43.84
2024-04-18T16:50:22.012Z,43.89
2024-04-18T16:52:50.631Z,44.48
2024-04-18T16:55:36.845Z,44.34
2024-04-18T16:58:17.206Z,44.62
2024-04-18T17:01:00.177Z,43.98
2024-04-18T17:03:28.227Z,43.55
2024-04-18T17:06:03.023Z,43.37
2024-04-18T17:08:31.323Z,43.73
2024-04-18T17:10:58.941Z,43.10
2024-04-18T17:13:45.371Z,42.28
2024-04-18T17:16:13.035Z,42.84
2024-04-18T17:18:49.504Z,42.70
2024-04-18T17:21:17.125Z,43.11
2024-04-18T17:23:44.570Z,43.90
2024-04-18T17:26:12.028Z,44.05
2024-04-18T17:28:39.769Z,43.78
2024-04-18T17:31:07.274Z,43.96
2024-04-18T17:33:34.792Z,44.56
2024-04-18T17:36:02.441Z,44.88
2024-04-18T17:38:49.132Z,45.48
2024-04-18T17:41:30.491Z,47.34
2024-04-18T17:44:16.856Z,48.36
2024-04-18T17:46:57.066Z,46.87
2024-04-18T17:49:25.399Z,47.35
2024-04-18T17:51:55.043Z,48.62
2024-04-18T17:54:22.877Z,49.05
2024-04-18T17:56:51.257Z,49.28
2024-04-18T17:59:20.134Z,49.31
2024-04-18T18:01:47.717Z,48.06
2024-04-18T18:04:15.457Z,48.80
2024-04-18T18:06:43.163Z,48.52
2024-04-18T18:09:10.895Z,48.78
2024-04-18T18:11:38.570Z,49.22
2024-04-18T18:14:06.201Z,49.63
2024-04-18T18:16:58.384Z,49.17
2024-04-18T18:19:25.955Z,49.43
2024-04-18T18:22:00.619Z,50.24
2024-04-18T18:24:28.459Z,50.10
2024-04-18T18:26:56.452Z,50.19
2024-04-18T18:29:23.958Z,50.43
2024-04-18T18:32:14.154Z,50.08
2024-04-18T18:34:43.342Z,50.72
2024-04-18T18:37:10.885Z,50.76
2024-04-18T18:39:39.006Z,50.88
2024-04-18T18:42:06.663Z,50.99
2024-04-18T18:44:34.397Z,51.01
2024-04-18T18:47:01.913Z,51.06
2024-04-18T18:49:48.305Z,51.13
2024-04-18T18:52:15.942Z,51.31
2024-04-18T18:54:43.486Z,51.57
2024-04-18T18:57:11.137Z,51.69
2024-04-18T18:59:42.046Z,51.98
2024-04-18T19:02:09.550Z,51.84
2024-04-18T19:04:57.241Z,51.60
2024-04-18T19:07:24.985Z,51.23
2024-04-18T19:09:52.481Z,50.83
2024-04-18T19:12:20.046Z,50.69
2024-04-18T19:14:47.590Z,50.62
2024-04-18T19:17:15.107Z,50.71
2024-04-18T19:19:42.608Z,50.43
2024-04-18T19:22:10.080Z,49.63
2024-04-18T19:24:37.809Z,49.72
2024-04-18T19:27:05.404Z,50.14
2024-04-18T19:29:40.383Z,50.43
2024-04-18T19:32:16.242Z,51.90
2024-04-18T19:34:43.852Z,54.40
2024-04-18T19:37:11.317Z,56.30
2024-04-18T19:39:38.952Z,57.40
2024-04-18T19:42:06.621Z,58.71
2024-04-18T19:44:34.256Z,58.90
2024-04-18T19:47:04.033Z,59.81
2024-04-18T19:49:35.530Z,60.88
2024-04-18T19:52:06.175Z,61.93
2024-04-18T19:54:36.075Z,62.07
2024-04-18T19:57:04.894Z,63.35
2024-04-18T19:59:32.881Z,64.25
2024-04-18T20:02:00.517Z,65.00
2024-04-18T20:04:28.225Z,65.33
2024-04-18T20:06:55.804Z,65.77
2024-04-18T20:09:23.382Z,66.88
2024-04-18T20:11:50.947Z,67.31
2024-04-18T20:14:21.105Z,67.90
2024-04-18T20:16:48.655Z,68.36
2024-04-18T20:19:16.749Z,69.13
2024-04-18T20:21:44.884Z,69.89
2024-04-18T20:24:14.178Z,70.07
2024-04-18T20:27:00.360Z,70.44
2024-04-18T20:29:46.649Z,70.72
2024-04-18T20:32:25.028Z,71.51
2024-04-18T20:34:54.168Z,71.36
2024-04-18T20:37:24.117Z,71.40
2024-04-18T20:39:55.570Z,71.31
2024-04-18T20:42:25.142Z,71.74
2024-04-18T20:45:03.254Z,72.26
2024-04-18T20:47:31.099Z,72.58
2024-04-18T20:49:58.681Z,72.75
2024-04-18T20:52:26.136Z,72.53
2024-04-18T20:54:53.656Z,72.97
2024-04-18T20:57:22.848Z,73.24
2024-04-18T20:59:51.162Z,73.12
2024-04-18T21:02:18.643Z,72.99
2024-04-18T21:04:46.557Z,73.33
2024-04-18T21:07:13.988Z,73.44
2024-04-18T21:09:41.569Z,73.29
2024-04-18T21:12:09.109Z,73.33
2024-04-18T21:14:36.667Z,73.57
2024-04-18T21:17:04.504Z,73.74
2024-04-18T21:19:32.007Z,73.83
2024-04-18T21:21:59.738Z,74.10
2024-04-18T21:24:27.260Z,74.42
2024-04-18T21:26:54.888Z,74.80
2024-04-18T21:29:22.392Z,75.11
2024-04-18T21:31:49.855Z,75.26
2024-04-18T21:34:17.968Z,75.10
2024-04-18T21:36:45.574Z,75.20
2024-04-18T21:39:14.385Z,75.56
2024-04-18T21:41:42.732Z,75.89
2024-04-18T21:44:10.363Z,75.88
2024-04-18T21:46:37.830Z,75.74
2024-04-18T21:49:05.329Z,76.31
2024-04-18T21:51:32.942Z,76.35
2024-04-18T21:54:01.114Z,76.23
2024-04-18T21:56:28.642Z,76.23
2024-04-18T21:58:56.124Z,76.74
2024-04-18T22:01:41.692Z,76.79
2024-04-18T22:04:10.021Z,76.74
2024-04-18T22:06:37.781Z,76.93
2024-04-18T22:09:05.680Z,76.97
2024-04-18T22:11:33.247Z,76.79
2024-04-18T22:14:00.847Z,76.99
2024-04-18T22:16:28.343Z,77.08
2024-04-18T22:18:55.912Z,77.13
2024-04-18T22:21:36.648Z,77.30
2024-04-18T22:24:05.453Z,77.52
2024-04-18T22:26:33.974Z,77.86
2024-04-18T22:29:01.471Z,77.57
2024-04-18T22:31:29.134Z,77.76
2024-04-18T22:33:56.781Z,77.97
2024-04-18T22:36:26.574Z,77.97
2024-04-18T22:38:54.237Z,78.16
2024-04-18T22:41:21.816Z,78.50
2024-04-18T22:43:49.276Z,78.53
2024-04-18T22:46:16.749Z,78.84
2024-04-18T22:48:44.524Z,78.97
2024-04-18T22:51:12.028Z,78.98
2024-04-18T22:53:39.531Z,79.28
2024-04-18T22:56:07.203Z,79.28
2024-04-18T22:58:34.734Z,79.28
2024-04-18T23:01:05.447Z,79.29
2024-04-18T23:03:33.415Z,79.45
2024-04-18T23:06:16.350Z,79.48
2024-04-18T23:08:44.210Z,79.62
2024-04-18T23:11:13.345Z,79.71
2024-04-18T23:13:41.254Z,79.64
2024-04-18T23:16:08.859Z,79.66
2024-04-18T23:18:36.564Z,79.69
2024-04-18T23:21:04.408Z,79.69
2024-04-18T23:23:34.570Z,79.83
2024-04-18T23:26:02.677Z,79.89
2024-04-18T23:28:30.194Z,79.79
2024-04-18T23:30:57.683Z,79.58
2024-04-18T23:33:25.348Z,79.58
2024-04-18T23:35:52.880Z,79.53
2024-04-18T23:38:20.573Z,79.67
2024-04-18T23:40:48.648Z,79.44
2024-04-18T23:43:16.132Z,79.34
2024-04-18T23:45:43.768Z,79.30
2024-04-18T23:48:12.813Z,79.29
2024-04-18T23:50:42.049Z,79.21
2024-04-18T23:53:09.467Z,79.13
2024-04-18T23:55:36.943Z,79.24
2024-04-18T23:58:04.612Z,79.29
